Time;durP1;ratioP1;P1;durP2;ratioP2;P2;SDS_P1;SDS_P2;PMS_P1;PMS_P2;Temp;Humidity;BMP_temperature;BMP_pressure;BME280_temperature;BME280_humidity;BME280_pressure;Samples;Min_cycle;Max_cycle;Signal;HPM_P1;HPM_P2
2021/12/10 00:00:23;;;;;;;14.95;7.63;;;;;;;2.50;100.00;98797.22;5069420;28;20032;-57
2021/12/10 00:02:49;;;;;;;14.52;7.30;;;;;;;2.54;100.00;98788.41;5077167;27;20031;-58
2021/12/10 00:05:19;;;;;;;14.48;7.13;;;;;;;2.50;100.00;98786.03;5063642;27;20084;-58
2021/12/10 00:07:48;;;;;;;9.57;6.13;;;;;;;2.41;100.00;98782.06;5094430;27;20545;-57
2021/12/10 00:10:17;;;;;;;10.25;6.70;;;;;;;2.35;100.00;98765.94;5078094;27;20032;-58
2021/12/10 00:12:49;;;;;;;12.95;6.03;;;;;;;2.34;100.00;98764.25;5076108;27;20169;-58
2021/12/10 00:15:18;;;;;;;12.02;6.20;;;;;;;2.25;100.00;98754.28;5087367;27;20027;-57
2021/12/10 00:17:43;;;;;;;10.05;6.15;;;;;;;2.15;100.00;98753.84;5080535;27;20059;-57
2021/12/10 00:20:10;;;;;;;11.88;6.30;;;;;;;2.07;100.00;98742.97;5087799;27;20739;-57
2021/12/10 00:22:42;;;;;;;17.52;5.20;;;;;;;2.03;100.00;98749.19;5074997;27;20387;-58
2021/12/10 00:25:17;;;;;;;12.45;5.85;;;;;;;1.97;100.00;98733.91;5072870;28;20915;-58
2021/12/10 00:27:42;;;;;;;6.90;4.40;;;;;;;1.90;100.00;98728.16;5076196;27;20027;-58
2021/12/10 00:30:12;;;;;;;8.10;4.88;;;;;;;1.84;100.00;98720.63;5086394;27;20034;-57
2021/12/10 00:32:43;;;;;;;9.57;4.75;;;;;;;1.76;100.00;98714.94;5038787;28;20119;-58
2021/12/10 00:35:16;;;;;;;6.10;4.07;;;;;;;1.71;100.00;98716.88;5067324;28;20113;-58
2021/12/10 00:37:42;;;;;;;16.85;5.00;;;;;;;1.66;100.00;98703.28;5058544;28;20042;-58
2021/12/10 00:40:09;;;;;;;10.45;3.88;;;;;;;1.65;100.00;98703.34;5096385;27;20020;-58
2021/12/10 00:42:35;;;;;;;11.85;4.70;;;;;;;1.70;100.00;98691.91;5087029;28;20035;-58
2021/12/10 00:45:03;;;;;;;6.85;3.72;;;;;;;1.70;100.00;98673.78;5082990;28;20044;-58
2021/12/10 00:47:29;;;;;;;7.80;4.22;;;;;;;1.64;100.00;98668.88;5069884;28;20399;-58
2021/12/10 00:49:55;;;;;;;8.63;3.78;;;;;;;1.61;100.00;98671.59;5084328;28;20785;-58
2021/12/10 00:52:21;;;;;;;12.00;4.57;;;;;;;1.60;100.00;98664.72;5069724;27;20023;-58
2021/12/10 00:54:47;;;;;;;15.40;3.55;;;;;;;1.56;100.00;98660.56;5088125;27;20040;-58
2021/12/10 00:57:13;;;;;;;10.25;3.45;;;;;;;1.57;100.00;98651.06;5071275;28;20077;-58
2021/12/10 00:59:40;;;;;;;10.98;3.78;;;;;;;1.51;100.00;98645.25;5072619;28;20561;-58
2021/12/10 01:02:08;;;;;;;7.88;4.15;;;;;;;1.27;100.00;98596.28;5090782;27;20340;-58
2021/12/10 01:04:35;;;;;;;12.05;3.83;;;;;;;1.50;100.00;98628.03;5091819;27;20248;-58
2021/12/10 01:07:11;;;;;;;12.23;4.15;;;;;;;1.50;100.00;98609.06;5070136;27;20210;-58
2021/12/10 01:09:40;;;;;;;11.88;4.15;;;;;;;1.46;100.00;98607.53;5083318;27;20027;-59
2021/12/10 01:12:09;;;;;;;8.35;3.67;;;;;;;1.43;100.00;98592.97;5092995;27;20039;-57
2021/12/10 01:25:37;;;;;;;8.32;3.33;;;;;;;1.39;100.00;98554.34;5072836;28;20089;-57
2021/12/10 01:28:04;;;;;;;8.23;3.80;;;;;;;1.41;100.00;98557.72;5072487;28;20031;-57
2021/12/10 01:30:33;;;;;;;6.38;3.47;;;;;;;1.37;100.00;98544.09;5070827;28;21193;-57
2021/12/10 01:33:03;;;;;;;6.35;3.25;;;;;;;1.35;100.00;98538.13;5070529;27;20049;-57
2021/12/10 01:35:32;;;;;;;11.88;3.85;;;;;;;1.35;100.00;98537.31;5061002;28;20031;-57
2021/12/10 01:37:59;;;;;;;7.43;3.33;;;;;;;1.34;100.00;98531.28;5061377;28;20048;-57
2021/12/10 01:40:26;;;;;;;6.15;3.28;;;;;;;1.31;100.00;98528.84;5087017;27;20035;-57
2021/12/10 01:42:54;;;;;;;7.95;4.13;;;;;;;1.32;100.00;98521.91;5087323;27;20039;-57
2021/12/10 01:45:24;;;;;;;7.50;3.78;;;;;;;1.34;100.00;98520.09;5073018;28;20027;-57
2021/12/10 01:48:01;;;;;;;10.98;4.15;;;;;;;1.31;100.00;98502.97;5087403;27;20158;-57
2021/12/10 01:50:28;;;;;;;7.20;3.40;;;;;;;1.31;100.00;98510.72;5083268;27;20032;-57
2021/12/10 01:52:55;;;;;;;9.38;4.18;;;;;;;1.30;100.00;98503.03;5071715;27;20023;-57
2021/12/10 01:55:23;;;;;;;7.75;3.08;;;;;;;1.26;100.00;98504.06;5092185;27;20086;-57
2021/12/10 01:57:50;;;;;;;7.60;3.20;;;;;;;1.28;100.00;98503.09;5088899;27;20027;-57
2021/12/10 02:00:18;;;;;;;13.80;3.05;;;;;;;1.27;100.00;98497.97;5083683;27;20016;-57
2021/12/10 02:02:45;;;;;;;11.80;3.30;;;;;;;1.29;100.00;98496.16;5068931;27;20936;-57
2021/12/10 02:05:11;;;;;;;10.27;3.40;;;;;;;1.29;100.00;98490.97;5089974;27;20039;-57
2021/12/10 02:07:37;;;;;;;8.18;3.00;;;;;;;1.29;100.00;98491.81;5074258;27;20066;-57
2021/12/10 02:10:05;;;;;;;12.45;3.08;;;;;;;1.21;100.00;98480.16;5072742;28;20081;-57
2021/12/10 02:12:31;;;;;;;10.20;2.85;;;;;;;1.30;100.00;98478.00;5084144;27;20079;-57
2021/12/10 02:15:00;;;;;;;3.92;2.30;;;;;;;1.32;100.00;98475.34;5091589;27;20536;-57
2021/12/10 02:17:28;;;;;;;6.03;2.28;;;;;;;1.31;100.00;98466.75;5078283;27;20031;-58
2021/12/10 02:19:54;;;;;;;11.80;3.22;;;;;;;1.29;100.00;98460.78;5088775;27;20035;-57
2021/12/10 02:22:19;;;;;;;11.52;2.92;;;;;;;1.09;100.00;98436.69;5089287;27;20023;-57
2021/12/10 02:24:45;;;;;;;7.63;3.30;;;;;;;1.24;100.00;98461.91;5086452;27;20030;-57
2021/12/10 02:27:10;;;;;;;12.50;2.95;;;;;;;1.25;100.00;98453.25;5060881;27;20781;-57
2021/12/10 02:29:38;;;;;;;7.45;2.55;;;;;;;1.26;100.00;98442.81;5072533;28;20034;-57
2021/12/10 02:32:08;;;;;;;9.18;3.03;;;;;;;1.20;100.00;98425.00;5071598;27;20049;-57
2021/12/10 02:34:33;;;;;;;9.00;2.75;;;;;;;1.06;100.00;98405.81;5072818;28;20832;-57
2021/12/10 02:36:59;;;;;;;5.30;2.15;;;;;;;1.25;100.00;98433.38;5073244;28;20028;-57
2021/12/10 02:39:26;;;;;;;6.53;2.70;;;;;;;1.22;100.00;98432.66;5084882;27;20445;-57
2021/12/10 02:41:52;;;;;;;6.90;2.72;;;;;;;1.23;100.00;98429.19;5062168;28;20032;-57
2021/12/10 02:44:24;;;;;;;5.85;2.53;;;;;;;1.23;100.00;98424.00;5065879;28;20869;-57
2021/12/10 02:46:50;;;;;;;5.93;2.47;;;;;;;1.23;100.00;98421.41;5070679;28;20138;-57
2021/12/10 02:49:16;;;;;;;7.07;2.40;;;;;;;1.22;100.00;98406.81;5071011;27;20163;-57
2021/12/10 02:51:42;;;;;;;9.73;3.15;;;;;;;1.19;100.00;98392.28;5073068;27;20030;-57
2021/12/10 02:54:10;;;;;;;5.20;2.10;;;;;;;1.20;100.00;98387.94;5051966;28;20035;-57
2021/12/10 02:56:36;;;;;;;4.30;2.28;;;;;;;1.18;100.00;98380.28;5057251;27;20027;-57
2021/12/10 02:59:03;;;;;;;5.07;2.17;;;;;;;1.19;100.00;98381.94;5083260;27;20887;-57
2021/12/10 03:01:33;;;;;;;6.53;2.65;;;;;;;1.19;100.00;98381.09;5081627;27;20095;-57
2021/12/10 03:03:59;;;;;;;6.13;2.15;;;;;;;1.20;100.00;98369.84;5057307;27;20853;-57
2021/12/10 03:06:25;;;;;;;3.58;2.17;;;;;;;1.17;100.00;98365.66;5069583;28;20086;-57
2021/12/10 03:08:52;;;;;;;4.35;2.40;;;;;;;1.21;100.00;98363.78;5081912;27;20023;-57
2021/12/10 03:11:22;;;;;;;5.13;2.22;;;;;;;1.22;100.00;98360.25;5055584;28;20034;-57
2021/12/10 03:13:47;;;;;;;5.18;2.17;;;;;;;1.21;100.00;98358.59;5067222;28;20742;-57
2021/12/10 03:16:13;;;;;;;5.57;2.30;;;;;;;1.21;100.00;98350.84;5071725;27;20037;-57
2021/12/10 03:18:39;;;;;;;6.93;2.47;;;;;;;1.20;100.00;98346.56;5081565;27;20020;-57
2021/12/10 03:21:09;;;;;;;9.88;2.85;;;;;;;1.23;100.00;98336.06;5069277;28;20046;-57
2021/12/10 03:23:37;;;;;;;7.90;2.00;;;;;;;1.26;100.00;98335.94;5051365;27;20886;-57
2021/12/10 03:26:03;;;;;;;4.80;1.75;;;;;;;1.31;100.00;98334.84;5058524;28;20031;-57
2021/12/10 03:28:28;;;;;;;7.93;2.55;;;;;;;1.36;100.00;98326.84;5083820;27;20023;-58
2021/12/10 03:30:55;;;;;;;9.27;2.67;;;;;;;1.42;100.00;98327.38;5068574;27;20813;-57
2021/12/10 03:33:20;;;;;;;5.55;1.92;;;;;;;1.33;100.00;98301.97;5070237;27;20076;-57
2021/12/10 03:35:48;;;;;;;9.52;2.25;;;;;;;1.50;100.00;98319.28;5074060;27;20023;-57
2021/12/10 03:38:18;;;;;;;4.55;2.30;;;;;;;1.55;100.00;98317.31;5081145;27;20031;-57
2021/12/10 03:40:43;;;;;;;6.70;2.63;;;;;;;1.61;100.00;98316.19;5081864;27;20883;-57
2021/12/10 03:43:10;;;;;;;6.07;2.22;;;;;;;1.68;100.00;98315.81;5086169;27;20023;-57
2021/12/10 03:45:39;;;;;;;10.85;2.28;;;;;;;1.71;100.00;98307.91;5077524;27;20134;-57
2021/12/10 03:48:13;;;;;;;5.85;2.75;;;;;;;1.74;100.00;98297.41;5065800;28;20032;-57
2021/12/10 03:50:39;;;;;;;6.95;2.42;;;;;;;1.74;100.00;98297.41;5068035;28;20893;-57
2021/12/10 03:53:04;;;;;;;6.57;2.28;;;;;;;1.74;100.00;98287.06;5065831;28;20034;-57
2021/12/10 03:55:30;;;;;;;6.95;2.75;;;;;;;1.75;100.00;98280.13;5059027;28;20020;-57
2021/12/10 03:57:56;;;;;;;7.65;2.47;;;;;;;1.75;100.00;98270.63;5079791;27;20031;-57
2021/12/10 04:00:25;;;;;;;11.13;2.47;;;;;;;1.79;100.00;98263.53;5068466;27;20244;-57
2021/12/10 04:02:51;;;;;;;7.35;1.75;;;;;;;1.82;100.00;98265.97;5081768;27;20034;-57
2021/12/10 04:05:16;;;;;;;8.43;2.60;;;;;;;1.84;100.00;98259.81;5076706;27;20042;-57
2021/12/10 04:07:42;;;;;;;4.53;1.92;;;;;;;1.86;100.00;98249.38;5067205;28;20127;-57
2021/12/10 04:10:10;;;;;;;11.02;2.65;;;;;;;1.87;100.00;98241.53;5087200;27;20037;-57
2021/12/10 04:12:36;;;;;;;6.28;2.58;;;;;;;1.69;100.00;98210.56;5085668;27;20902;-57
2021/12/10 04:15:04;;;;;;;10.80;2.25;;;;;;;1.90;100.00;98232.75;5072585;27;20027;-57
2021/12/10 04:17:29;;;;;;;10.10;2.65;;;;;;;1.36;100.00;98135.41;5064282;27;20024;-57
2021/12/10 04:19:54;;;;;;;10.88;2.30;;;;;;;1.96;100.00;98225.50;5061490;28;20027;-57
2021/12/10 04:22:22;;;;;;;7.72;2.45;;;;;;;1.98;100.00;98221.13;5067765;28;21012;-57
2021/12/10 04:24:48;;;;;;;8.27;3.10;;;;;;;2.03;100.00;98215.69;5067836;28;20043;-57
2021/12/10 04:27:14;;;;;;;9.55;2.45;;;;;;;2.03;100.00;98206.16;5065182;28;20096;-57
2021/12/10 04:29:40;;;;;;;10.15;2.40;;;;;;;2.09;100.00;98199.00;5078650;27;20019;-57
2021/12/10 04:32:06;;;;;;;6.68;2.33;;;;;;;2.12;100.00;98191.09;5072576;27;20038;-57
2021/12/10 04:34:31;;;;;;;8.65;2.30;;;;;;;2.14;100.00;98181.47;5072018;27;20926;-57
2021/12/10 04:36:59;;;;;;;5.80;2.50;;;;;;;1.90;100.00;98148.16;5071899;27;20079;-57
2021/12/10 04:39:25;;;;;;;8.70;2.35;;;;;;;2.19;100.00;98184.66;5078093;27;20100;-57
2021/12/10 04:41:51;;;;;;;8.27;2.35;;;;;;;2.18;100.00;98176.06;5084838;27;20525;-57
2021/12/10 04:44:17;;;;;;;8.65;3.05;;;;;;;2.00;100.00;98131.22;5088529;28;20031;-57
2021/12/10 04:46:42;;;;;;;7.43;2.88;;;;;;;2.25;100.00;98161.03;5073831;28;20217;-57
2021/12/10 04:49:14;;;;;;;4.15;1.67;;;;;;;2.26;100.00;98158.38;5085164;28;20034;-58
2021/12/10 04:51:49;;;;;;;7.68;2.58;;;;;;;2.27;100.00;98159.19;5084651;28;20437;-57
2021/12/10 04:54:17;;;;;;;5.80;2.53;;;;;;;2.01;100.00;98111.34;5071936;28;20054;-57
2021/12/10 04:56:43;;;;;;;11.57;2.53;;;;;;;2.27;100.00;98149.66;5066916;28;20031;-58
2021/12/10 04:59:10;;;;;;;6.72;2.35;;;;;;;2.20;100.00;98147.50;5084425;28;20082;-57
2021/12/10 05:01:37;;;;;;;11.55;2.88;;;;;;;2.25;100.00;98142.91;5067703;28;20122;-57
2021/12/10 05:04:06;;;;;;;8.00;2.17;;;;;;;2.22;100.00;98143.06;5067257;28;20023;-57
2021/12/10 05:06:31;;;;;;;7.60;2.50;;;;;;;2.18;100.00;98131.19;5063036;28;20011;-57
2021/12/10 05:08:57;;;;;;;7.20;2.25;;;;;;;2.20;100.00;98135.34;5068649;28;20085;-58
2021/12/10 05:11:22;;;;;;;8.23;2.33;;;;;;;2.19;100.00;98132.88;5065857;28;20923;-57
2021/12/10 05:13:48;;;;;;;4.95;2.50;;;;;;;2.18;100.00;98128.59;5071227;28;20889;-57
2021/12/10 05:16:15;;;;;;;6.22;2.28;;;;;;;2.16;100.00;98122.66;5075167;28;20140;-57
2021/12/10 05:18:44;;;;;;;7.20;3.08;;;;;;;2.14;100.00;98114.13;5081222;28;20035;-57
2021/12/10 05:21:11;;;;;;;6.45;2.38;;;;;;;2.10;100.00;98110.03;5075205;28;20035;-57
2021/12/10 05:23:37;;;;;;;8.13;2.55;;;;;;;2.11;100.00;98109.13;5086535;28;20126;-57
2021/12/10 05:26:04;;;;;;;10.40;2.47;;;;;;;2.07;100.00;98103.25;5052712;28;20929;-57
2021/12/10 05:28:30;;;;;;;8.77;2.35;;;;;;;2.04;100.00;98103.44;5077978;28;20083;-57
2021/12/10 05:30:56;;;;;;;13.07;2.83;;;;;;;2.01;100.00;98094.06;5074950;28;20032;-57
2021/12/10 05:33:24;;;;;;;6.90;2.17;;;;;;;2.01;100.00;98106.19;5068304;28;20892;-57
2021/12/10 05:35:50;;;;;;;8.35;2.60;;;;;;;2.00;100.00;98087.22;5071945;28;20096;-57
2021/12/10 05:38:17;;;;;;;7.13;2.35;;;;;;;2.05;100.00;98090.41;5084343;28;20054;-57
2021/12/10 05:40:47;;;;;;;15.40;3.45;;;;;;;2.11;100.00;98088.41;5060131;27;20031;-57
2021/12/10 05:43:12;;;;;;;6.03;2.67;;;;;;;2.13;100.00;98081.41;5082851;27;20081;-57
2021/12/10 05:45:38;;;;;;;4.07;2.15;;;;;;;2.19;100.00;98075.88;5062409;27;20538;-57
2021/12/10 05:48:04;;;;;;;5.18;2.08;;;;;;;2.23;100.00;98087.75;5067278;28;20036;-57
2021/12/10 05:50:30;;;;;;;8.30;2.47;;;;;;;2.28;100.00;98077.97;5071432;28;20020;-57
2021/12/10 05:52:56;;;;;;;6.43;2.25;;;;;;;2.31;100.00;98067.44;5071008;27;20032;-56
2021/12/10 05:55:21;;;;;;;12.02;3.08;;;;;;;2.34;100.00;98069.84;5061884;27;20048;-56
2021/12/10 05:57:47;;;;;;;10.70;2.42;;;;;;;2.35;100.00;98071.53;5087685;27;20352;-56
2021/12/10 06:00:25;;;;;;;11.63;2.70;;;;;;;2.36;100.00;98062.84;5075535;27;20791;-56
2021/12/10 06:02:51;;;;;;;10.60;2.95;;;;;;;2.38;100.00;98066.19;5058993;28;20050;-56
2021/12/10 06:05:17;;;;;;;6.25;1.95;;;;;;;2.39;100.00;98068.72;5082298;27;20868;-56
2021/12/10 06:07:42;;;;;;;9.82;2.90;;;;;;;2.39;100.00;98062.69;5056980;27;20869;-57
2021/12/10 06:10:10;;;;;;;5.93;2.80;;;;;;;2.25;100.00;98045.31;5080999;27;20062;-56
2021/12/10 06:12:36;;;;;;;5.07;2.53;;;;;;;2.38;100.00;98056.66;5088488;27;20027;-57
2021/12/10 06:15:02;;;;;;;5.03;2.55;;;;;;;2.38;100.00;98061.00;5075385;27;20078;-57
2021/12/10 06:17:28;;;;;;;9.43;2.97;;;;;;;2.37;100.00;98056.72;5078509;27;20023;-56
2021/12/10 06:19:53;;;;;;;6.43;2.20;;;;;;;2.38;100.00;98055.81;5070327;28;20201;-57
2021/12/10 06:22:18;;;;;;;8.05;2.92;;;;;;;2.36;100.00;98053.34;5070137;28;20915;-56
2021/12/10 06:24:44;;;;;;;9.85;3.22;;;;;;;2.39;100.00;98052.31;5070254;27;20580;-56
2021/12/10 06:27:09;;;;;;;9.02;3.15;;;;;;;2.37;100.00;98043.78;5068289;27;20077;-56
2021/12/10 06:29:36;;;;;;;12.52;2.42;;;;;;;2.35;100.00;98045.63;5059572;28;20931;-56
2021/12/10 06:32:02;;;;;;;11.60;2.83;;;;;;;2.36;100.00;98047.31;5068812;28;20027;-56
2021/12/10 06:34:27;;;;;;;8.48;3.05;;;;;;;2.34;100.00;98038.75;5072232;28;20028;-57
2021/12/10 06:36:52;;;;;;;10.55;3.20;;;;;;;2.33;100.00;98047.47;5069130;28;20031;-57
2021/12/10 06:39:20;;;;;;;10.75;3.50;;;;;;;2.31;100.00;98044.13;5069052;27;20088;-57
2021/12/10 06:41:50;;;;;;;13.05;3.85;;;;;;;2.30;100.00;98052.84;5068191;28;20116;-57
2021/12/10 06:44:15;;;;;;;12.30;2.72;;;;;;;2.29;100.00;98045.97;5068445;28;20034;-57
2021/12/10 06:46:41;;;;;;;10.02;3.33;;;;;;;2.30;100.00;98050.25;5061679;28;20048;-56
2021/12/10 06:49:06;;;;;;;11.57;3.60;;;;;;;2.28;100.00;98049.47;5058501;28;20124;-56
2021/12/10 06:51:33;;;;;;;11.13;3.17;;;;;;;2.27;100.00;98047.78;5048353;28;20040;-56
2021/12/10 06:53:58;;;;;;;10.68;3.30;;;;;;;2.26;100.00;98041.81;5049947;28;20078;-56
2021/12/10 06:56:24;;;;;;;7.93;3.20;;;;;;;2.25;100.00;98045.31;5049047;28;20028;-56
2021/12/10 06:58:51;;;;;;;9.57;3.70;;;;;;;2.24;100.00;98046.22;5048142;28;20028;-56
2021/12/10 07:01:22;;;;;;;7.47;3.80;;;;;;;2.23;100.00;98038.53;5029689;28;20210;-57
2021/12/10 07:03:48;;;;;;;8.60;3.58;;;;;;;2.23;100.00;98044.53;5047149;28;20097;-57
2021/12/10 07:06:14;;;;;;;6.60;2.60;;;;;;;2.12;100.00;98022.75;5047681;28;20144;-57
2021/12/10 07:08:42;;;;;;;9.00;3.42;;;;;;;2.23;100.00;98026.41;5039138;28;20036;-57
2021/12/10 07:11:11;;;;;;;10.38;4.28;;;;;;;2.24;100.00;98035.00;5047353;28;20961;-57
2021/12/10 07:13:37;;;;;;;7.05;3.00;;;;;;;2.24;100.00;98028.06;5049923;28;20037;-57
2021/12/10 07:16:04;;;;;;;8.23;3.38;;;;;;;2.25;100.00;98027.16;5066357;28;20040;-57
2021/12/10 07:18:29;;;;;;;6.82;3.30;;;;;;;1.87;100.00;97971.44;5067273;28;20858;-57
2021/12/10 07:20:55;;;;;;;6.18;3.45;;;;;;;2.22;100.00;98029.09;5068348;28;20072;-57
2021/12/10 07:23:22;;;;;;;11.35;3.33;;;;;;;2.20;100.00;98026.56;5067788;28;20028;-57
2021/12/10 07:25:48;;;;;;;11.18;3.05;;;;;;;2.22;100.00;98031.69;5066783;28;20031;-58
2021/12/10 07:28:14;;;;;;;9.00;2.85;;;;;;;2.11;100.00;98021.91;5066639;28;20070;-56
2021/12/10 07:30:40;;;;;;;8.30;3.03;;;;;;;2.22;100.00;98026.50;5051311;28;20987;-56
2021/12/10 07:33:07;;;;;;;9.45;3.63;;;;;;;2.20;100.00;98015.41;5068602;28;20903;-56
2021/12/10 07:35:33;;;;;;;6.68;2.78;;;;;;;2.04;100.00;97992.06;5067811;28;20038;-57
2021/12/10 07:37:59;;;;;;;14.27;2.95;;;;;;;1.97;100.00;97978.63;5067093;28;20035;-57
2021/12/10 07:40:27;;;;;;;7.13;2.80;;;;;;;2.20;100.00;98023.16;5068481;28;20024;-57
2021/12/10 07:42:53;;;;;;;8.77;2.88;;;;;;;2.22;100.00;98021.31;5067824;28;20142;-57
2021/12/10 07:45:19;;;;;;;7.45;2.40;;;;;;;2.23;100.00;98021.22;5068974;28;20024;-57
2021/12/10 07:47:48;;;;;;;8.38;3.17;;;;;;;2.26;100.00;98022.81;5067090;28;20027;-57
2021/12/10 07:50:20;;;;;;;8.35;3.33;;;;;;;2.28;100.00;98013.19;5046514;28;20903;-57
2021/12/10 07:52:45;;;;;;;10.50;3.55;;;;;;;2.31;100.00;98011.28;5061884;28;20134;-57
2021/12/10 07:55:15;;;;;;;7.80;3.00;;;;;;;2.32;100.00;98009.53;5066775;28;20097;-58
2021/12/10 07:57:42;;;;;;;7.18;3.28;;;;;;;2.33;100.00;98011.22;5065785;28;20533;-57
2021/12/10 08:00:12;;;;;;;8.98;3.30;;;;;;;2.36;100.00;98013.63;5068810;28;20035;-57
2021/12/10 08:02:37;;;;;;;6.20;3.00;;;;;;;2.38;100.00;98015.22;5066923;28;20027;-57
2021/12/10 08:05:03;;;;;;;8.60;3.60;;;;;;;2.42;100.00;98016.72;5050205;28;20872;-57
2021/12/10 08:07:29;;;;;;;7.38;2.78;;;;;;;2.44;100.00;98019.19;5064426;28;20792;-57
2021/12/10 08:09:54;;;;;;;8.50;3.17;;;;;;;2.44;100.00;98020.03;5048073;28;20028;-57
2021/12/10 08:12:19;;;;;;;10.52;2.90;;;;;;;2.48;100.00;98025.88;5046307;28;20897;-58
2021/12/10 08:14:46;;;;;;;7.95;2.72;;;;;;;2.52;100.00;98017.03;5048807;28;20842;-57
2021/12/10 08:17:12;;;;;;;7.95;2.95;;;;;;;2.54;100.00;98012.59;5066657;28;20887;-57
2021/12/10 08:19:38;;;;;;;14.05;3.28;;;;;;;2.57;100.00;98012.41;5066925;28;20082;-57
2021/12/10 08:22:05;;;;;;;7.78;3.22;;;;;;;2.60;100.00;98014.84;5067847;28;20864;-57
2021/12/10 08:24:30;;;;;;;7.65;3.28;;;;;;;2.64;100.00;98012.94;5068610;28;20027;-58
2021/12/10 08:26:56;;;;;;;10.07;3.58;;;;;;;2.47;100.00;97990.53;5065592;28;20062;-57
2021/12/10 08:29:24;;;;;;;7.70;2.85;;;;;;;2.69;100.00;98013.47;5067470;28;20019;-58
2021/12/10 08:31:50;;;;;;;10.25;3.17;;;;;;;2.69;100.00;98013.47;5067786;28;20040;-58
2021/12/10 08:34:15;;;;;;;4.32;2.60;;;;;;;2.72;100.00;98013.31;5067184;28;20078;-58
2021/12/10 08:36:41;;;;;;;16.58;3.33;;;;;;;2.45;100.00;97976.81;5068161;28;20055;-57
2021/12/10 08:39:09;;;;;;;11.73;3.53;;;;;;;2.73;100.00;98012.38;5068088;28;20031;-57
2021/12/10 08:41:34;;;;;;;8.85;2.60;;;;;;;2.71;100.00;98009.88;5067654;28;20023;-58
2021/12/10 08:44:01;;;;;;;5.97;2.45;;;;;;;2.72;100.00;98015.91;5066539;28;20131;-58
2021/12/10 08:46:27;;;;;;;5.80;2.80;;;;;;;2.72;100.00;98008.97;5064758;28;20089;-58
2021/12/10 08:48:54;;;;;;;4.97;2.53;;;;;;;2.70;100.00;98013.41;5066319;28;20896;-59
2021/12/10 08:51:26;;;;;;;4.68;2.20;;;;;;;2.41;100.00;97962.38;5064812;28;20449;-58
2021/12/10 08:53:52;;;;;;;5.25;2.45;;;;;;;2.71;100.00;98011.63;5065944;28;20027;-58
2021/12/10 08:56:18;;;;;;;7.68;3.13;;;;;;;2.74;100.00;98016.66;5066238;28;20050;-58
2021/12/10 08:58:44;;;;;;;6.18;3.00;;;;;;;2.76;100.00;98020.00;5065551;28;20039;-58
2021/12/10 09:01:20;;;;;;;4.43;2.35;;;;;;;2.76;100.00;98014.81;5066639;28;20913;-58
2021/12/10 09:03:48;;;;;;;5.05;2.63;;;;;;;2.75;100.00;98021.75;5061871;28;20039;-58
2021/12/10 09:06:16;;;;;;;7.57;2.22;;;;;;;2.64;100.00;98000.78;5063158;28;20036;-58
2021/12/10 09:08:41;;;;;;;9.68;3.08;;;;;;;2.76;100.00;98036.38;5046016;28;20024;-57
2021/12/10 09:11:08;;;;;;;5.40;2.22;;;;;;;2.78;100.00;98013.78;5042916;28;20886;-57
2021/12/10 09:13:33;;;;;;;6.10;2.15;;;;;;;2.82;100.00;98023.06;5058117;28;20136;-57
2021/12/10 09:16:01;;;;;;;10.45;2.88;;;;;;;2.82;100.00;98014.44;5069783;28;20827;-57
2021/12/10 09:18:28;;;;;;;11.25;2.78;;;;;;;2.70;100.00;97992.66;5068486;28;20032;-57
2021/12/10 09:21:00;;;;;;;5.20;2.55;;;;;;;2.88;100.00;98020.13;5069599;28;20031;-57
2021/12/10 09:23:27;;;;;;;6.75;2.30;;;;;;;2.92;100.00;98019.03;5069988;28;20764;-57
2021/12/10 09:25:57;;;;;;;3.80;1.83;;;;;;;2.95;100.00;98020.59;5070299;28;20035;-57
2021/12/10 09:28:24;;;;;;;7.45;2.95;;;;;;;2.96;100.00;98017.94;5060263;28;20038;-57
2021/12/10 09:30:51;;;;;;;9.60;3.03;;;;;;;2.98;100.00;98023.84;5049864;28;20185;-58
2021/12/10 09:33:17;;;;;;;4.20;2.08;;;;;;;3.01;100.00;98015.88;5049898;28;20024;-56
2021/12/10 09:35:42;;;;;;;6.40;2.55;;;;;;;3.02;100.00;98017.56;5049841;28;20861;-57
2021/12/10 09:38:08;;;;;;;4.30;2.22;;;;;;;3.06;100.00;98019.06;5049756;28;20794;-57
2021/12/10 09:40:40;;;;;;;7.47;2.50;;;;;;;3.06;100.00;98019.06;5068511;28;20023;-57
2021/12/10 09:43:08;;;;;;;5.20;2.30;;;;;;;3.08;100.00;98027.56;5069673;28;20032;-57
2021/12/10 09:45:35;;;;;;;8.20;2.92;;;;;;;3.09;100.00;98028.41;5069527;28;20019;-58
2021/12/10 09:48:01;;;;;;;4.35;2.35;;;;;;;3.13;100.00;98026.47;5069489;28;20915;-57
2021/12/10 09:50:30;;;;;;;7.28;2.55;;;;;;;3.13;100.00;98029.06;5069197;28;20135;-57
2021/12/10 09:52:56;;;;;;;6.03;2.30;;;;;;;3.15;100.00;98032.41;5069585;28;20047;-57
2021/12/10 09:55:22;;;;;;;7.88;2.53;;;;;;;3.15;100.00;98027.22;5069225;28;20035;-57
2021/12/10 09:57:49;;;;;;;5.40;2.53;;;;;;;3.18;100.00;98027.88;5069106;28;20023;-57
2021/12/10 10:00:38;;;;;;;4.95;2.20;;;;;;;3.22;100.00;98029.38;5052175;28;20109;-57
2021/12/10 10:03:07;;;;;;;6.30;2.65;;;;;;;3.27;100.00;98026.53;5052401;28;20048;-57
2021/12/10 10:05:33;;;;;;;3.63;2.17;;;;;;;3.28;100.00;98026.41;5049208;28;21024;-57
2021/12/10 10:08:03;;;;;;;6.13;2.47;;;;;;;3.26;100.00;98024.84;5047587;28;20904;-57
2021/12/10 10:10:30;;;;;;;5.25;2.88;;;;;;;3.25;100.00;98028.34;5048776;28;20063;-57
2021/12/10 10:12:56;;;;;;;7.55;2.70;;;;;;;3.24;100.00;98026.69;5047658;28;20894;-57
2021/12/10 10:15:28;;;;;;;5.18;2.13;;;;;;;3.07;100.00;98010.38;5056257;28;20961;-57
2021/12/10 10:17:55;;;;;;;6.85;2.28;;;;;;;3.17;100.00;98030.56;5061453;28;20036;-57
2021/12/10 10:20:21;;;;;;;5.70;2.35;;;;;;;3.16;100.00;98029.72;5054339;28;20032;-58
2021/12/10 10:22:47;;;;;;;6.13;2.72;;;;;;;3.17;100.00;98035.75;5061802;28;20040;-57
2021/12/10 10:25:17;;;;;;;8.45;2.60;;;;;;;2.89;100.00;97990.69;5059894;28;20237;-57
2021/12/10 10:27:43;;;;;;;3.03;1.65;;;;;;;3.15;100.00;98037.59;5062173;28;20062;-57
2021/12/10 10:30:46;;;;;;;3.72;1.85;;;;;;;3.09;100.00;98033.59;5061262;28;20031;-58
2021/12/10 10:33:12;;;;;;;3.97;1.90;;;;;;;3.05;100.00;98032.94;5039159;28;20036;-57
2021/12/10 10:35:50;;;;;;;4.75;2.20;;;;;;;3.05;100.00;98040.72;5068752;28;20038;-58
2021/12/10 10:38:19;;;;;;;5.43;2.00;;;;;;;2.94;100.00;98019.75;5069167;28;20027;-58
2021/12/10 10:40:48;;;;;;;3.08;1.65;;;;;;;3.04;100.00;98038.25;5068865;28;20027;-57
2021/12/10 10:43:14;;;;;;;3.22;1.50;;;;;;;3.13;100.00;98040.28;5068812;28;20055;-57
2021/12/10 10:45:42;;;;;;;6.57;2.15;;;;;;;3.18;100.00;98034.84;5066475;28;20883;-57
2021/12/10 10:48:09;;;;;;;3.80;2.03;;;;;;;3.20;100.00;98038.19;5067248;28;20035;-57
2021/12/10 10:50:45;;;;;;;5.85;2.30;;;;;;;3.22;100.00;98039.75;5067578;28;20062;-57
2021/12/10 10:53:13;;;;;;;4.25;1.77;;;;;;;3.25;100.00;98043.91;5067327;28;20085;-58
2021/12/10 10:56:10;;;;;;;4.47;1.90;;;;;;;3.18;100.00;98040.03;5069256;28;20037;-57
2021/12/10 10:58:43;;;;;;;3.78;1.58;;;;;;;3.20;100.00;98044.22;5047544;28;20196;-57
2021/12/10 11:01:26;;;;;;;3.22;1.77;;;;;;;3.27;100.00;98039.50;5058788;28;20081;-57
2021/12/10 11:04:02;;;;;;;4.35;1.98;;;;;;;3.31;100.00;98039.19;5030860;28;20901;-57
2021/12/10 11:06:36;;;;;;;5.13;1.80;;;;;;;3.33;100.00;98039.97;5046594;28;20051;-57
2021/12/10 11:09:14;;;;;;;3.55;1.80;;;;;;;3.41;100.00;98047.31;5046532;28;20071;-58
2021/12/10 11:11:48;;;;;;;4.82;2.15;;;;;;;3.48;100.00;98043.41;5047968;28;20024;-57
2021/12/10 11:14:29;;;;;;;2.63;1.48;;;;;;;3.52;100.00;98037.09;5048034;28;20032;-57
2021/12/10 11:17:05;;;;;;;4.55;2.08;;;;;;;3.56;100.00;98044.63;5048085;28;20036;-57
2021/12/10 11:19:31;;;;;;;5.43;2.28;;;;;;;3.59;100.00;98043.59;5047501;28;20032;-57
2021/12/10 11:22:02;;;;;;;4.45;2.20;;;;;;;3.57;100.00;98043.72;5046312;28;20093;-58
2021/12/10 11:24:44;;;;;;;5.07;2.03;;;;;;;3.60;100.00;98053.06;5048517;28;20929;-58
2021/12/10 11:27:21;;;;;;;4.40;1.85;;;;;;;3.65;100.00;98045.00;5047700;28;20028;-57
2021/12/10 11:30:05;;;;;;;3.53;1.92;;;;;;;3.69;100.00;98052.50;5047670;28;20028;-58
2021/12/10 11:32:44;;;;;;;4.05;1.80;;;;;;;3.73;100.00;98046.19;5047533;28;20185;-57
2021/12/10 11:35:25;;;;;;;4.60;1.67;;;;;;;3.71;100.00;98053.25;5047894;28;20139;-58
2021/12/10 11:38:14;;;;;;;3.72;1.30;;;;;;;3.65;100.00;98056.19;5047309;28;20742;-58
2021/12/10 11:41:15;;;;;;;4.20;1.55;;;;;;;3.65;100.00;98053.59;5045810;28;20028;-58
2021/12/10 11:44:19;;;;;;;3.35;1.60;;;;;;;3.60;100.00;98056.50;5007258;28;20923;-58
2021/12/10 11:47:25;;;;;;;5.30;2.03;;;;;;;3.55;100.00;98068.91;5046443;28;20024;-58